sensor_id;sensor_type;location;lat;lon;timestamp;P1;durP1;ratioP1;P2;durP2;ratioP2
3523;SDS011;1776;53.330;11.498;2023-08-12T00:02:21;4.33;;;2.43;;
3523;SDS011;1776;53.330;11.498;2023-08-12T00:04:47;8.00;;;2.63;;
3523;SDS011;1776;53.330;11.498;2023-08-12T00:07:12;2.63;;;2.40;;
3523;SDS011;1776;53.330;11.498;2023-08-12T00:09:38;5.23;;;2.70;;
3523;SDS011;1776;53.330;11.498;2023-08-12T00:12:03;3.17;;;2.37;;
3523;SDS011;1776;53.330;11.498;2023-08-12T00:14:29;2.87;;;2.57;;
3523;SDS011;1776;53.330;11.498;2023-08-12T00:16:54;3.87;;;2.17;;
3523;SDS011;1776;53.330;11.498;2023-08-12T00:19:20;4.90;;;2.20;;
3523;SDS011;1776;53.330;11.498;2023-08-12T00:21:45;5.63;;;2.33;;
3523;SDS011;1776;53.330;11.498;2023-08-12T00:24:10;2.63;;;2.30;;
3523;SDS011;1776;53.330;11.498;2023-08-12T00:26:35;5.17;;;2.50;;
3523;SDS011;1776;53.330;11.498;2023-08-12T00:29:01;6.33;;;2.87;;
3523;SDS011;1776;53.330;11.498;2023-08-12T00:31:26;5.40;;;3.10;;
3523;SDS011;1776;53.330;11.498;2023-08-12T00:33:51;4.20;;;2.63;;
3523;SDS011;1776;53.330;11.498;2023-08-12T00:36:17;2.90;;;2.30;;
3523;SDS011;1776;53.330;11.498;2023-08-12T00:38:42;5.50;;;2.60;;
3523;SDS011;1776;53.330;11.498;2023-08-12T00:41:07;4.60;;;2.80;;
3523;SDS011;1776;53.330;11.498;2023-08-12T00:43:32;1.80;;;1.70;;
3523;SDS011;1776;53.330;11.498;2023-08-12T00:45:58;3.97;;;2.50;;
3523;SDS011;1776;53.330;11.498;2023-08-12T00:48:23;2.47;;;2.27;;
3523;SDS011;1776;53.330;11.498;2023-08-12T00:50:48;3.07;;;2.50;;
3523;SDS011;1776;53.330;11.498;2023-08-12T00:53:14;8.83;;;2.70;;
3523;SDS011;1776;53.330;11.498;2023-08-12T00:55:40;8.37;;;3.33;;
3523;SDS011;1776;53.330;11.498;2023-08-12T00:58:06;3.10;;;2.17;;
3523;SDS011;1776;53.330;11.498;2023-08-12T01:00:31;2.60;;;2.40;;
3523;SDS011;1776;53.330;11.498;2023-08-12T01:02:57;2.73;;;2.23;;
3523;SDS011;1776;53.330;11.498;2023-08-12T01:05:22;5.50;;;2.43;;
3523;SDS011;1776;53.330;11.498;2023-08-12T01:07:48;3.30;;;2.37;;
3523;SDS011;1776;53.330;11.498;2023-08-12T01:10:14;5.87;;;2.13;;
3523;SDS011;1776;53.330;11.498;2023-08-12T01:12:42;3.10;;;2.80;;
3523;SDS011;1776;53.330;11.498;2023-08-12T01:15:14;5.20;;;2.80;;
3523;SDS011;1776;53.330;11.498;2023-08-12T01:17:42;3.40;;;2.40;;
3523;SDS011;1776;53.330;11.498;2023-08-12T01:20:08;5.07;;;2.30;;
3523;SDS011;1776;53.330;11.498;2023-08-12T01:22:39;3.60;;;2.17;;
3523;SDS011;1776;53.330;11.498;2023-08-12T01:25:06;3.70;;;2.53;;
3523;SDS011;1776;53.330;11.498;2023-08-12T01:27:33;4.40;;;2.77;;
3523;SDS011;1776;53.330;11.498;2023-08-12T01:29:59;2.70;;;2.17;;
3523;SDS011;1776;53.330;11.498;2023-08-12T01:35:20;2.97;;;2.73;;
3523;SDS011;1776;53.330;11.498;2023-08-12T01:37:51;3.73;;;2.50;;
3523;SDS011;1776;53.330;11.498;2023-08-12T01:40:18;2.63;;;2.17;;
3523;SDS011;1776;53.330;11.498;2023-08-12T01:42:44;3.93;;;2.57;;
3523;SDS011;1776;53.330;11.498;2023-08-12T01:45:10;2.83;;;2.30;;
3523;SDS011;1776;53.330;11.498;2023-08-12T01:47:35;3.37;;;2.70;;
3523;SDS011;1776;53.330;11.498;2023-08-12T01:50:01;2.40;;;2.20;;
3523;SDS011;1776;53.330;11.498;2023-08-12T01:52:26;5.13;;;2.90;;
3523;SDS011;1776;53.330;11.498;2023-08-12T01:54:51;5.83;;;3.00;;
3523;SDS011;1776;53.330;11.498;2023-08-12T01:57:17;2.87;;;2.20;;
3523;SDS011;1776;53.330;11.498;2023-08-12T01:59:42;3.40;;;2.80;;
3523;SDS011;1776;53.330;11.498;2023-08-12T02:02:09;3.03;;;2.83;;
3523;SDS011;1776;53.330;11.498;2023-08-12T02:04:34;2.37;;;2.17;;
3523;SDS011;1776;53.330;11.498;2023-08-12T02:07:02;2.67;;;2.30;;
3523;SDS011;1776;53.330;11.498;2023-08-12T02:09:27;3.63;;;2.67;;
3523;SDS011;1776;53.330;11.498;2023-08-12T02:11:52;2.70;;;1.90;;
3523;SDS011;1776;53.330;11.498;2023-08-12T02:14:18;4.33;;;2.33;;
3523;SDS011;1776;53.330;11.498;2023-08-12T02:16:43;2.47;;;2.27;;
3523;SDS011;1776;53.330;11.498;2023-08-12T02:19:08;3.60;;;2.13;;
3523;SDS011;1776;53.330;11.498;2023-08-12T02:21:33;4.23;;;2.50;;
3523;SDS011;1776;53.330;11.498;2023-08-12T02:23:59;3.30;;;2.43;;
3523;SDS011;1776;53.330;11.498;2023-08-12T02:26:24;2.30;;;2.10;;
3523;SDS011;1776;53.330;11.498;2023-08-12T02:28:49;3.40;;;3.00;;
3523;SDS011;1776;53.330;11.498;2023-08-12T02:31:15;3.43;;;2.80;;
3523;SDS011;1776;53.330;11.498;2023-08-12T02:33:41;7.10;;;2.20;;
3523;SDS011;1776;53.330;11.498;2023-08-12T02:36:07;4.70;;;2.57;;
3523;SDS011;1776;53.330;11.498;2023-08-12T02:38:32;3.47;;;2.37;;
3523;SDS011;1776;53.330;11.498;2023-08-12T02:40:57;2.13;;;1.97;;
3523;SDS011;1776;53.330;11.498;2023-08-12T02:43:22;5.40;;;2.47;;
3523;SDS011;1776;53.330;11.498;2023-08-12T02:45:48;4.37;;;2.67;;
3523;SDS011;1776;53.330;11.498;2023-08-12T02:48:13;2.53;;;2.33;;
3523;SDS011;1776;53.330;11.498;2023-08-12T02:50:38;4.67;;;2.87;;
3523;SDS011;1776;53.330;11.498;2023-08-12T02:53:04;3.53;;;2.67;;
3523;SDS011;1776;53.330;11.498;2023-08-12T02:55:30;4.70;;;2.40;;
3523;SDS011;1776;53.330;11.498;2023-08-12T02:57:57;5.00;;;2.73;;
3523;SDS011;1776;53.330;11.498;2023-08-12T03:00:22;4.90;;;2.67;;
3523;SDS011;1776;53.330;11.498;2023-08-12T03:02:48;3.90;;;2.63;;
3523;SDS011;1776;53.330;11.498;2023-08-12T03:05:13;2.60;;;2.40;;
3523;SDS011;1776;53.330;11.498;2023-08-12T03:07:38;17.57;;;3.33;;
3523;SDS011;1776;53.330;11.498;2023-08-12T03:10:04;2.70;;;2.50;;
3523;SDS011;1776;53.330;11.498;2023-08-12T03:12:30;5.23;;;2.80;;
3523;SDS011;1776;53.330;11.498;2023-08-12T03:14:55;4.13;;;2.33;;
3523;SDS011;1776;53.330;11.498;2023-08-12T03:17:20;2.47;;;2.30;;
3523;SDS011;1776;53.330;11.498;2023-08-12T03:19:45;4.03;;;2.17;;
3523;SDS011;1776;53.330;11.498;2023-08-12T03:22:11;2.80;;;2.50;;
3523;SDS011;1776;53.330;11.498;2023-08-12T03:24:36;5.43;;;2.87;;
3523;SDS011;1776;53.330;11.498;2023-08-12T03:27:01;3.40;;;3.10;;
3523;SDS011;1776;53.330;11.498;2023-08-12T03:29:26;4.80;;;2.90;;
3523;SDS011;1776;53.330;11.498;2023-08-12T03:31:52;3.00;;;2.50;;
3523;SDS011;1776;53.330;11.498;2023-08-12T03:34:17;3.93;;;3.10;;
3523;SDS011;1776;53.330;11.498;2023-08-12T03:36:42;2.80;;;2.57;;
3523;SDS011;1776;53.330;11.498;2023-08-12T03:39:08;2.60;;;2.40;;
3523;SDS011;1776;53.330;11.498;2023-08-12T03:41:33;2.60;;;2.40;;
3523;SDS011;1776;53.330;11.498;2023-08-12T03:43:58;4.17;;;2.43;;
3523;SDS011;1776;53.330;11.498;2023-08-12T03:46:24;6.67;;;3.67;;
3523;SDS011;1776;53.330;11.498;2023-08-12T03:48:49;4.50;;;2.80;;
3523;SDS011;1776;53.330;11.498;2023-08-12T03:51:14;3.37;;;3.07;;
3523;SDS011;1776;53.330;11.498;2023-08-12T03:53:39;8.73;;;3.03;;
3523;SDS011;1776;53.330;11.498;2023-08-12T03:56:05;3.40;;;3.00;;
3523;SDS011;1776;53.330;11.498;2023-08-12T03:58:30;4.70;;;2.80;;
3523;SDS011;1776;53.330;11.498;2023-08-12T04:00:55;3.80;;;3.10;;
3523;SDS011;1776;53.330;11.498;2023-08-12T04:03:20;3.57;;;3.20;;
3523;SDS011;1776;53.330;11.498;2023-08-12T04:05:49;4.03;;;2.40;;
3523;SDS011;1776;53.330;11.498;2023-08-12T04:08:17;2.83;;;2.30;;
3523;SDS011;1776;53.330;11.498;2023-08-12T04:10:44;2.60;;;2.40;;
3523;SDS011;1776;53.330;11.498;2023-08-12T04:13:10;2.77;;;2.57;;
3523;SDS011;1776;53.330;11.498;2023-08-12T04:15:35;2.43;;;2.20;;
3523;SDS011;1776;53.330;11.498;2023-08-12T04:18:00;3.93;;;2.73;;
3523;SDS011;1776;53.330;11.498;2023-08-12T04:20:26;4.73;;;2.93;;
3523;SDS011;1776;53.330;11.498;2023-08-12T04:22:51;3.47;;;3.10;;
3523;SDS011;1776;53.330;11.498;2023-08-12T04:25:17;3.50;;;3.10;;
3523;SDS011;1776;53.330;11.498;2023-08-12T04:27:43;4.60;;;2.80;;
3523;SDS011;1776;53.330;11.498;2023-08-12T04:30:08;3.50;;;2.40;;
3523;SDS011;1776;53.330;11.498;2023-08-12T04:32:34;5.33;;;2.73;;
3523;SDS011;1776;53.330;11.498;2023-08-12T04:34:59;3.53;;;3.00;;
3523;SDS011;1776;53.330;11.498;2023-08-12T04:37:24;5.20;;;2.80;;
3523;SDS011;1776;53.330;11.498;2023-08-12T04:39:51;3.70;;;2.50;;
3523;SDS011;1776;53.330;11.498;2023-08-12T04:42:16;2.80;;;2.50;;
3523;SDS011;1776;53.330;11.498;2023-08-12T04:44:41;3.83;;;3.20;;
3523;SDS011;1776;53.330;11.498;2023-08-12T04:47:06;3.17;;;2.87;;
3523;SDS011;1776;53.330;11.498;2023-08-12T04:49:32;3.40;;;3.07;;
3523;SDS011;1776;53.330;11.498;2023-08-12T04:51:57;2.97;;;2.67;;
3523;SDS011;1776;53.330;11.498;2023-08-12T04:54:23;3.20;;;2.90;;
3523;SDS011;1776;53.330;11.498;2023-08-12T04:56:49;3.33;;;3.03;;
3523;SDS011;1776;53.330;11.498;2023-08-12T04:59:14;5.50;;;2.87;;
3523;SDS011;1776;53.330;11.498;2023-08-12T05:01:39;5.17;;;3.20;;
3523;SDS011;1776;53.330;11.498;2023-08-12T05:04:05;3.27;;;2.77;;
3523;SDS011;1776;53.330;11.498;2023-08-12T05:06:30;4.00;;;2.50;;
3523;SDS011;1776;53.330;11.498;2023-08-12T05:08:55;5.40;;;3.17;;
3523;SDS011;1776;53.330;11.498;2023-08-12T05:11:21;4.40;;;3.00;;
3523;SDS011;1776;53.330;11.498;2023-08-12T05:13:46;3.33;;;2.97;;
3523;SDS011;1776;53.330;11.498;2023-08-12T05:16:11;4.43;;;3.03;;
3523;SDS011;1776;53.330;11.498;2023-08-12T05:18:36;3.13;;;2.80;;
3523;SDS011;1776;53.330;11.498;2023-08-12T05:21:02;5.77;;;3.10;;
3523;SDS011;1776;53.330;11.498;2023-08-12T05:23:27;6.93;;;3.37;;
3523;SDS011;1776;53.330;11.498;2023-08-12T05:25:53;4.00;;;3.10;;
3523;SDS011;1776;53.330;11.498;2023-08-12T05:28:18;5.43;;;2.83;;
3523;SDS011;1776;53.330;11.498;2023-08-12T05:30:44;8.50;;;3.30;;
3523;SDS011;1776;53.330;11.498;2023-08-12T05:33:10;4.57;;;3.50;;
3523;SDS011;1776;53.330;11.498;2023-08-12T05:35:35;4.80;;;2.30;;
3523;SDS011;1776;53.330;11.498;2023-08-12T05:38:01;4.47;;;3.20;;
3523;SDS011;1776;53.330;11.498;2023-08-12T05:40:26;3.40;;;3.10;;
3523;SDS011;1776;53.330;11.498;2023-08-12T05:42:52;4.70;;;3.00;;
3523;SDS011;1776;53.330;11.498;2023-08-12T05:45:17;4.67;;;3.30;;
3523;SDS011;1776;53.330;11.498;2023-08-12T05:47:42;2.77;;;2.57;;
3523;SDS011;1776;53.330;11.498;2023-08-12T05:50:08;4.07;;;3.67;;
3523;SDS011;1776;53.330;11.498;2023-08-12T05:52:33;4.30;;;3.30;;
3523;SDS011;1776;53.330;11.498;2023-08-12T05:54:58;5.20;;;3.03;;
3523;SDS011;1776;53.330;11.498;2023-08-12T05:57:24;2.70;;;2.50;;
3523;SDS011;1776;53.330;11.498;2023-08-12T05:59:49;3.33;;;3.03;;
3523;SDS011;1776;53.330;11.498;2023-08-12T06:02:15;4.43;;;3.70;;
3523;SDS011;1776;53.330;11.498;2023-08-12T06:04:40;4.63;;;3.00;;
3523;SDS011;1776;53.330;11.498;2023-08-12T06:07:05;3.63;;;3.30;;
3523;SDS011;1776;53.330;11.498;2023-08-12T06:09:31;5.07;;;3.50;;
3523;SDS011;1776;53.330;11.498;2023-08-12T06:11:56;5.90;;;3.33;;
3523;SDS011;1776;53.330;11.498;2023-08-12T06:14:21;4.03;;;3.73;;
3523;SDS011;1776;53.330;11.498;2023-08-12T06:16:46;3.87;;;2.90;;
3523;SDS011;1776;53.330;11.498;2023-08-12T06:19:12;4.83;;;3.33;;
3523;SDS011;1776;53.330;11.498;2023-08-12T06:21:37;4.50;;;3.60;;
3523;SDS011;1776;53.330;11.498;2023-08-12T06:24:02;4.30;;;3.80;;
3523;SDS011;1776;53.330;11.498;2023-08-12T06:26:28;3.43;;;3.03;;
3523;SDS011;1776;53.330;11.498;2023-08-12T06:28:53;3.83;;;3.33;;
3523;SDS011;1776;53.330;11.498;2023-08-12T06:31:18;4.83;;;3.10;;
3523;SDS011;1776;53.330;11.498;2023-08-12T06:33:44;8.13;;;3.10;;
3523;SDS011;1776;53.330;11.498;2023-08-12T06:36:09;6.37;;;3.73;;
3523;SDS011;1776;53.330;11.498;2023-08-12T06:38:36;4.27;;;3.03;;
3523;SDS011;1776;53.330;11.498;2023-08-12T06:41:01;3.27;;;2.97;;
3523;SDS011;1776;53.330;11.498;2023-08-12T06:43:26;4.83;;;3.40;;
3523;SDS011;1776;53.330;11.498;2023-08-12T06:45:51;4.90;;;3.30;;
3523;SDS011;1776;53.330;11.498;2023-08-12T06:48:17;3.33;;;3.03;;
3523;SDS011;1776;53.330;11.498;2023-08-12T06:50:42;4.00;;;3.70;;
3523;SDS011;1776;53.330;11.498;2023-08-12T06:53:07;3.63;;;3.33;;
3523;SDS011;1776;53.330;11.498;2023-08-12T06:55:33;3.73;;;3.07;;
3523;SDS011;1776;53.330;11.498;2023-08-12T06:57:58;4.43;;;3.10;;
3523;SDS011;1776;53.330;11.498;2023-08-12T07:00:24;7.77;;;3.53;;
3523;SDS011;1776;53.330;11.498;2023-08-12T07:02:49;3.80;;;3.40;;
3523;SDS011;1776;53.330;11.498;2023-08-12T07:05:15;4.07;;;3.37;;
3523;SDS011;1776;53.330;11.498;2023-08-12T07:07:40;3.43;;;3.13;;
3523;SDS011;1776;53.330;11.498;2023-08-12T07:10:05;4.80;;;3.60;;
3523;SDS011;1776;53.330;11.498;2023-08-12T07:12:31;7.27;;;3.80;;
3523;SDS011;1776;53.330;11.498;2023-08-12T07:14:58;5.97;;;3.30;;
3523;SDS011;1776;53.330;11.498;2023-08-12T07:17:23;9.53;;;3.70;;
3523;SDS011;1776;53.330;11.498;2023-08-12T07:19:48;5.20;;;3.87;;
3523;SDS011;1776;53.330;11.498;2023-08-12T07:22:14;3.37;;;3.17;;
3523;SDS011;1776;53.330;11.498;2023-08-12T07:24:41;3.87;;;3.47;;
3523;SDS011;1776;53.330;11.498;2023-08-12T07:27:06;7.97;;;3.70;;
3523;SDS011;1776;53.330;11.498;2023-08-12T07:29:31;4.67;;;3.10;;
3523;SDS011;1776;53.330;11.498;2023-08-12T07:31:56;3.17;;;2.87;;
3523;SDS011;1776;53.330;11.498;2023-08-12T07:34:22;3.97;;;3.63;;
3523;SDS011;1776;53.330;11.498;2023-08-12T07:36:47;3.43;;;3.00;;
3523;SDS011;1776;53.330;11.498;2023-08-12T07:39:12;4.50;;;3.67;;
3523;SDS011;1776;53.330;11.498;2023-08-12T07:41:38;3.90;;;3.50;;
3523;SDS011;1776;53.330;11.498;2023-08-12T07:44:03;5.60;;;3.23;;
3523;SDS011;1776;53.330;11.498;2023-08-12T07:46:29;4.37;;;3.30;;
3523;SDS011;1776;53.330;11.498;2023-08-12T07:48:55;3.80;;;3.37;;
3523;SDS011;1776;53.330;11.498;2023-08-12T07:51:21;6.77;;;3.80;;
3523;SDS011;1776;53.330;11.498;2023-08-12T07:53:46;4.63;;;3.50;;
3523;SDS011;1776;53.330;11.498;2023-08-12T07:56:11;5.90;;;3.53;;
3523;SDS011;1776;53.330;11.498;2023-08-12T07:58:36;7.67;;;3.63;;
3523;SDS011;1776;53.330;11.498;2023-08-12T08:01:02;4.43;;;3.53;;
3523;SDS011;1776;53.330;11.498;2023-08-12T08:03:27;9.93;;;3.73;;
3523;SDS011;1776;53.330;11.498;2023-08-12T08:05:52;4.77;;;3.73;;
3523;SDS011;1776;53.330;11.498;2023-08-12T08:08:18;4.40;;;3.40;;
3523;SDS011;1776;53.330;11.498;2023-08-12T08:10:45;5.17;;;4.20;;
3523;SDS011;1776;53.330;11.498;2023-08-12T08:13:10;5.23;;;3.70;;
3523;SDS011;1776;53.330;11.498;2023-08-12T08:15:35;9.50;;;4.07;;
3523;SDS011;1776;53.330;11.498;2023-08-12T08:18:00;4.20;;;3.50;;
3523;SDS011;1776;53.330;11.498;2023-08-12T08:20:28;3.90;;;3.47;;
3523;SDS011;1776;53.330;11.498;2023-08-12T08:22:53;6.70;;;3.50;;
3523;SDS011;1776;53.330;11.498;2023-08-12T08:25:20;4.10;;;3.20;;
3523;SDS011;1776;53.330;11.498;2023-08-12T08:27:45;8.13;;;4.07;;
3523;SDS011;1776;53.330;11.498;2023-08-12T08:30:10;6.20;;;3.20;;
3523;SDS011;1776;53.330;11.498;2023-08-12T08:32:36;4.30;;;3.87;;
3523;SDS011;1776;53.330;11.498;2023-08-12T08:35:01;5.60;;;4.33;;
3523;SDS011;1776;53.330;11.498;2023-08-12T08:37:27;4.47;;;4.10;;
3523;SDS011;1776;53.330;11.498;2023-08-12T08:39:52;7.23;;;4.30;;
3523;SDS011;1776;53.330;11.498;2023-08-12T08:42:17;4.83;;;4.43;;
3523;SDS011;1776;53.330;11.498;2023-08-12T08:44:45;5.00;;;3.53;;
3523;SDS011;1776;53.330;11.498;2023-08-12T08:47:16;5.10;;;3.53;;
3523;SDS011;1776;53.330;11.498;2023-08-12T08:49:49;7.87;;;3.77;;
3523;SDS011;1776;53.330;11.498;2023-08-12T08:52:15;4.70;;;3.80;;
3523;SDS011;1776;53.330;11.498;2023-08-12T08:54:41;6.33;;;4.10;;
3523;SDS011;1776;53.330;11.498;2023-08-12T08:57:07;6.53;;;3.33;;
3523;SDS011;1776;53.330;11.498;2023-08-12T08:59:33;7.93;;;3.87;;
3523;SDS011;1776;53.330;11.498;2023-08-12T09:01:58;4.80;;;3.80;;
3523;SDS011;1776;53.330;11.498;2023-08-12T09:04:25;3.80;;;3.23;;
3523;SDS011;1776;53.330;11.498;2023-08-12T09:06:52;4.27;;;3.93;;
3523;SDS011;1776;53.330;11.498;2023-08-12T09:09:18;4.80;;;3.90;;
3523;SDS011;1776;53.330;11.498;2023-08-12T09:11:45;4.07;;;3.60;;
3523;SDS011;1776;53.330;11.498;2023-08-12T09:14:12;5.63;;;4.17;;
3523;SDS011;1776;53.330;11.498;2023-08-12T09:16:38;4.77;;;4.27;;
3523;SDS011;1776;53.330;11.498;2023-08-12T09:19:03;10.70;;;4.80;;
3523;SDS011;1776;53.330;11.498;2023-08-12T09:21:29;5.87;;;4.40;;
3523;SDS011;1776;53.330;11.498;2023-08-12T09:23:55;4.90;;;4.30;;
3523;SDS011;1776;53.330;11.498;2023-08-12T09:26:21;4.33;;;3.93;;
3523;SDS011;1776;53.330;11.498;2023-08-12T09:28:47;4.40;;;3.97;;
3523;SDS011;1776;53.330;11.498;2023-08-12T09:33:47;6.23;;;4.00;;
3523;SDS011;1776;53.330;11.498;2023-08-12T09:36:12;9.27;;;4.00;;
3523;SDS011;1776;53.330;11.498;2023-08-12T09:38:38;4.37;;;3.97;;
3523;SDS011;1776;53.330;11.498;2023-08-12T09:41:03;4.47;;;4.03;;
3523;SDS011;1776;53.330;11.498;2023-08-12T09:43:28;4.63;;;4.07;;
3523;SDS011;1776;53.330;11.498;2023-08-12T09:45:57;5.93;;;4.37;;
3523;SDS011;1776;53.330;11.498;2023-08-12T09:48:23;6.00;;;4.10;;
3523;SDS011;1776;53.330;11.498;2023-08-12T09:50:50;3.70;;;3.40;;
3523;SDS011;1776;53.330;11.498;2023-08-12T09:53:15;7.10;;;4.90;;
3523;SDS011;1776;53.330;11.498;2023-08-12T09:55:40;8.53;;;4.40;;
3523;SDS011;1776;53.330;11.498;2023-08-12T09:58:08;4.47;;;4.07;;
3523;SDS011;1776;53.330;11.498;2023-08-12T10:00:35;4.23;;;3.83;;
3523;SDS011;1776;53.330;11.498;2023-08-12T10:03:00;4.30;;;3.93;;
3523;SDS011;1776;53.330;11.498;2023-08-12T10:05:27;4.43;;;4.03;;
3523;SDS011;1776;53.330;11.498;2023-08-12T10:07:53;4.00;;;3.70;;
3523;SDS011;1776;53.330;11.498;2023-08-12T10:10:20;4.80;;;4.37;;
3523;SDS011;1776;53.330;11.498;2023-08-12T10:12:45;6.87;;;4.03;;
3523;SDS011;1776;53.330;11.498;2023-08-12T10:15:11;4.73;;;4.27;;
3523;SDS011;1776;53.330;11.498;2023-08-12T10:17:36;4.40;;;4.00;;
3523;SDS011;1776;53.330;11.498;2023-08-12T10:20:03;5.13;;;4.63;;
3523;SDS011;1776;53.330;11.498;2023-08-12T10:22:30;4.97;;;4.00;;
3523;SDS011;1776;53.330;11.498;2023-08-12T10:24:59;5.70;;;4.30;;
3523;SDS011;1776;53.330;11.498;2023-08-12T10:27:27;6.97;;;4.50;;
3523;SDS011;1776;53.330;11.498;2023-08-12T10:29:52;6.40;;;4.73;;
3523;SDS011;1776;53.330;11.498;2023-08-12T10:32:21;5.13;;;4.43;;
3523;SDS011;1776;53.330;11.498;2023-08-12T10:34:46;5.00;;;4.33;;
3523;SDS011;1776;53.330;11.498;2023-08-12T10:37:19;8.33;;;4.10;;
3523;SDS011;1776;53.330;11.498;2023-08-12T10:39:45;4.87;;;4.47;;
3523;SDS011;1776;53.330;11.498;2023-08-12T10:42:10;6.83;;;4.53;;
3523;SDS011;1776;53.330;11.498;2023-08-12T10:44:39;9.33;;;4.80;;
3523;SDS011;1776;53.330;11.498;2023-08-12T10:47:14;6.00;;;4.57;;
3523;SDS011;1776;53.330;11.498;2023-08-12T10:49:43;8.90;;;4.60;;
3523;SDS011;1776;53.330;11.498;2023-08-12T10:52:46;4.50;;;4.10;;
3523;SDS011;1776;53.330;11.498;2023-08-12T10:57:43;4.73;;;4.30;;
3523;SDS011;1776;53.330;11.498;2023-08-12T11:00:15;7.83;;;5.03;;
3523;SDS011;1776;53.330;11.498;2023-08-12T11:02:45;5.07;;;4.57;;
3523;SDS011;1776;53.330;11.498;2023-08-12T11:05:11;6.27;;;5.03;;
3523;SDS011;1776;53.330;11.498;2023-08-12T11:07:44;6.50;;;4.50;;
3523;SDS011;1776;53.330;11.498;2023-08-12T11:10:15;6.60;;;4.63;;
3523;SDS011;1776;53.330;11.498;2023-08-12T11:12:47;7.63;;;4.50;;
3523;SDS011;1776;53.330;11.498;2023-08-12T11:15:12;7.43;;;4.23;;
3523;SDS011;1776;53.330;11.498;2023-08-12T11:17:39;6.43;;;5.07;;
3523;SDS011;1776;53.330;11.498;2023-08-12T11:20:09;6.60;;;5.17;;
3523;SDS011;1776;53.330;11.498;2023-08-12T11:22:45;7.30;;;4.00;;
3523;SDS011;1776;53.330;11.498;2023-08-12T11:25:12;7.13;;;4.60;;
3523;SDS011;1776;53.330;11.498;2023-08-12T11:27:43;5.00;;;4.60;;
3523;SDS011;1776;53.330;11.498;2023-08-12T11:30:10;4.97;;;4.47;;
3523;SDS011;1776;53.330;11.498;2023-08-12T11:32:38;5.60;;;4.20;;
3523;SDS011;1776;53.330;11.498;2023-08-12T11:35:04;4.67;;;4.27;;
3523;SDS011;1776;53.330;11.498;2023-08-12T11:37:31;5.17;;;4.30;;
3523;SDS011;1776;53.330;11.498;2023-08-12T11:39:57;5.20;;;4.70;;
3523;SDS011;1776;53.330;11.498;2023-08-12T11:42:22;5.70;;;4.33;;
3523;SDS011;1776;53.330;11.498;2023-08-12T11:44:48;7.60;;;3.87;;
3523;SDS011;1776;53.330;11.498;2023-08-12T11:47:13;10.33;;;4.60;;
3523;SDS011;1776;53.330;11.498;2023-08-12T11:49:38;9.30;;;5.27;;
3523;SDS011;1776;53.330;11.498;2023-08-12T11:52:03;6.10;;;4.50;;
3523;SDS011;1776;53.330;11.498;2023-08-12T11:54:30;5.10;;;4.63;;
3523;SDS011;1776;53.330;11.498;2023-08-12T11:56:56;5.07;;;4.57;;
3523;SDS011;1776;53.330;11.498;2023-08-12T11:59:22;6.13;;;4.40;;
3523;SDS011;1776;53.330;11.498;2023-08-12T12:01:50;4.97;;;4.37;;
3523;SDS011;1776;53.330;11.498;2023-08-12T12:04:16;5.30;;;4.53;;
3523;SDS011;1776;53.330;11.498;2023-08-12T12:06:44;5.20;;;4.70;;
3523;SDS011;1776;53.330;11.498;2023-08-12T12:09:09;5.17;;;4.67;;
3523;SDS011;1776;53.330;11.498;2023-08-12T12:11:38;5.40;;;4.87;;
3523;SDS011;1776;53.330;11.498;2023-08-12T12:14:04;7.13;;;4.53;;
3523;SDS011;1776;53.330;11.498;2023-08-12T12:16:37;7.37;;;5.00;;
3523;SDS011;1776;53.330;11.498;2023-08-12T12:21:42;7.40;;;5.07;;
3523;SDS011;1776;53.330;11.498;2023-08-12T12:24:10;6.00;;;5.07;;
3523;SDS011;1776;53.330;11.498;2023-08-12T12:26:36;8.90;;;5.10;;
3523;SDS011;1776;53.330;11.498;2023-08-12T12:29:03;7.90;;;5.07;;
3523;SDS011;1776;53.330;11.498;2023-08-12T12:31:29;5.80;;;4.50;;
3523;SDS011;1776;53.330;11.498;2023-08-12T12:33:56;5.13;;;3.93;;
3523;SDS011;1776;53.330;11.498;2023-08-12T12:36:21;11.77;;;4.57;;
3523;SDS011;1776;53.330;11.498;2023-08-12T12:38:47;5.47;;;4.33;;
3523;SDS011;1776;53.330;11.498;2023-08-12T12:41:12;5.00;;;4.43;;
3523;SDS011;1776;53.330;11.498;2023-08-12T12:43:38;5.27;;;4.10;;
3523;SDS011;1776;53.330;11.498;2023-08-12T12:46:03;7.60;;;4.63;;
3523;SDS011;1776;53.330;11.498;2023-08-12T12:48:28;7.70;;;5.17;;
3523;SDS011;1776;53.330;11.498;2023-08-12T12:50:53;6.10;;;5.50;;
3523;SDS011;1776;53.330;11.498;2023-08-12T12:53:19;6.43;;;5.13;;
3523;SDS011;1776;53.330;11.498;2023-08-12T12:55:44;5.27;;;4.10;;
3523;SDS011;1776;53.330;11.498;2023-08-12T12:58:09;7.60;;;4.73;;
3523;SDS011;1776;53.330;11.498;2023-08-12T13:00:35;6.07;;;5.20;;
3523;SDS011;1776;53.330;11.498;2023-08-12T13:03:00;9.03;;;4.63;;
3523;SDS011;1776;53.330;11.498;2023-08-12T13:05:25;6.93;;;5.40;;
3523;SDS011;1776;53.330;11.498;2023-08-12T13:07:50;9.57;;;4.70;;
3523;SDS011;1776;53.330;11.498;2023-08-12T13:10:16;5.07;;;4.53;;
3523;SDS011;1776;53.330;11.498;2023-08-12T13:12:41;5.40;;;3.97;;
3523;SDS011;1776;53.330;11.498;2023-08-12T13:15:06;4.13;;;3.83;;
3523;SDS011;1776;53.330;11.498;2023-08-12T13:17:32;6.00;;;4.47;;
3523;SDS011;1776;53.330;11.498;2023-08-12T13:19:57;5.97;;;5.10;;
3523;SDS011;1776;53.330;11.498;2023-08-12T13:22:22;7.87;;;5.07;;
3523;SDS011;1776;53.330;11.498;2023-08-12T13:24:48;7.47;;;4.73;;
3523;SDS011;1776;53.330;11.498;2023-08-12T13:27:13;4.93;;;4.47;;
3523;SDS011;1776;53.330;11.498;2023-08-12T13:29:38;4.67;;;4.13;;
3523;SDS011;1776;53.330;11.498;2023-08-12T13:32:03;4.33;;;3.93;;
3523;SDS011;1776;53.330;11.498;2023-08-12T13:34:29;5.93;;;4.50;;
3523;SDS011;1776;53.330;11.498;2023-08-12T13:36:54;6.40;;;5.00;;
3523;SDS011;1776;53.330;11.498;2023-08-12T13:39:19;5.20;;;4.13;;
3523;SDS011;1776;53.330;11.498;2023-08-12T13:41:45;7.43;;;5.50;;
3523;SDS011;1776;53.330;11.498;2023-08-12T13:44:10;4.37;;;4.00;;
3523;SDS011;1776;53.330;11.498;2023-08-12T13:46:36;5.50;;;4.00;;
3523;SDS011;1776;53.330;11.498;2023-08-12T13:49:01;5.00;;;4.23;;
3523;SDS011;1776;53.330;11.498;2023-08-12T13:51:26;7.93;;;4.47;;
3523;SDS011;1776;53.330;11.498;2023-08-12T13:53:52;6.80;;;3.70;;
3523;SDS011;1776;53.330;11.498;2023-08-12T13:56:17;4.43;;;3.40;;
3523;SDS011;1776;53.330;11.498;2023-08-12T13:58:43;5.10;;;4.60;;
3523;SDS011;1776;53.330;11.498;2023-08-12T14:01:08;5.10;;;3.90;;
3523;SDS011;1776;53.330;11.498;2023-08-12T14:03:33;4.67;;;4.17;;
3523;SDS011;1776;53.330;11.498;2023-08-12T14:05:59;4.03;;;3.40;;
3523;SDS011;1776;53.330;11.498;2023-08-12T14:08:24;5.23;;;3.30;;
3523;SDS011;1776;53.330;11.498;2023-08-12T14:10:49;4.93;;;3.50;;
3523;SDS011;1776;53.330;11.498;2023-08-12T14:13:15;4.53;;;4.13;;
3523;SDS011;1776;53.330;11.498;2023-08-12T14:15:40;4.30;;;3.90;;
3523;SDS011;1776;53.330;11.498;2023-08-12T14:18:06;5.03;;;4.53;;
3523;SDS011;1776;53.330;11.498;2023-08-12T14:20:31;5.10;;;4.50;;
3523;SDS011;1776;53.330;11.498;2023-08-12T14:22:57;6.30;;;5.07;;
3523;SDS011;1776;53.330;11.498;2023-08-12T14:25:22;4.90;;;4.47;;
3523;SDS011;1776;53.330;11.498;2023-08-12T14:27:48;4.17;;;3.87;;
3523;SDS011;1776;53.330;11.498;2023-08-12T14:30:13;3.87;;;3.57;;
3523;SDS011;1776;53.330;11.498;2023-08-12T14:32:38;5.03;;;4.53;;
3523;SDS011;1776;53.330;11.498;2023-08-12T14:35:04;4.83;;;4.30;;
3523;SDS011;1776;53.330;11.498;2023-08-12T14:37:30;5.17;;;4.77;;
3523;SDS011;1776;53.330;11.498;2023-08-12T14:39:55;4.80;;;4.40;;
3523;SDS011;1776;53.330;11.498;2023-08-12T14:42:21;4.80;;;4.20;;
3523;SDS011;1776;53.330;11.498;2023-08-12T14:44:46;4.60;;;3.83;;
3523;SDS011;1776;53.330;11.498;2023-08-12T14:47:11;5.10;;;4.03;;
3523;SDS011;1776;53.330;11.498;2023-08-12T14:49:37;7.20;;;4.63;;
3523;SDS011;1776;53.330;11.498;2023-08-12T14:52:02;5.93;;;4.20;;
3523;SDS011;1776;53.330;11.498;2023-08-12T14:54:28;8.67;;;5.10;;
3523;SDS011;1776;53.330;11.498;2023-08-12T14:56:53;4.33;;;4.00;;
3523;SDS011;1776;53.330;11.498;2023-08-12T14:59:18;8.67;;;4.43;;
3523;SDS011;1776;53.330;11.498;2023-08-12T15:01:43;8.93;;;4.90;;
3523;SDS011;1776;53.330;11.498;2023-08-12T15:04:09;5.97;;;4.70;;